sensor_id;sensor_type;location;lat;lon;timestamp;temperature;humidity
47162;DHT22;32921;53.256;8.198;2023-06-22T00:10:28;15.40;99.90
47162;DHT22;32921;53.256;8.198;2023-06-22T05:51:42;19.70;99.90
47162;DHT22;32921;53.256;8.198;2023-06-22T05:54:07;19.50;99.90
47162;DHT22;32921;53.256;8.198;2023-06-22T06:03:53;19.60;99.90
47162;DHT22;32921;53.256;8.198;2023-06-22T06:06:19;20.90;99.90
47162;DHT22;32921;53.256;8.198;2023-06-22T06:08:54;21.00;99.90
47162;DHT22;32921;53.256;8.198;2023-06-22T06:11:20;21.50;99.90
47162;DHT22;32921;53.256;8.198;2023-06-22T06:13:45;21.50;99.90
47162;DHT22;32921;53.256;8.198;2023-06-22T06:16:11;21.60;99.90
47162;DHT22;32921;53.256;8.198;2023-06-22T06:18:37;21.70;99.90
47162;DHT22;32921;53.256;8.198;2023-06-22T06:21:03;22.30;99.90
47162;DHT22;32921;53.256;8.198;2023-06-22T06:23:28;22.70;99.90
47162;DHT22;32921;53.256;8.198;2023-06-22T06:25:54;23.20;99.90
47162;DHT22;32921;53.256;8.198;2023-06-22T06:28:19;23.50;99.90
47162;DHT22;32921;53.256;8.198;2023-06-22T06:30:45;23.50;99.90
47162;DHT22;32921;53.256;8.198;2023-06-22T06:33:12;23.40;99.90
47162;DHT22;32921;53.256;8.198;2023-06-22T06:35:38;23.00;99.90
47162;DHT22;32921;53.256;8.198;2023-06-22T06:38:04;22.80;99.90
47162;DHT22;32921;53.256;8.198;2023-06-22T06:40:29;23.10;99.90
47162;DHT22;32921;53.256;8.198;2023-06-22T06:42:55;23.80;99.90
47162;DHT22;32921;53.256;8.198;2023-06-22T06:45:22;24.20;99.90
47162;DHT22;32921;53.256;8.198;2023-06-22T06:47:49;24.30;98.00
47162;DHT22;32921;53.256;8.198;2023-06-22T06:50:15;24.40;97.70
47162;DHT22;32921;53.256;8.198;2023-06-22T06:52:41;24.60;95.70
47162;DHT22;32921;53.256;8.198;2023-06-22T06:55:07;24.70;93.60
47162;DHT22;32921;53.256;8.198;2023-06-22T06:57:40;24.30;94.70
47162;DHT22;32921;53.256;8.198;2023-06-22T07:00:07;24.50;93.80
47162;DHT22;32921;53.256;8.198;2023-06-22T07:02:37;23.60;94.40
47162;DHT22;32921;53.256;8.198;2023-06-22T07:05:03;23.70;94.80
47162;DHT22;32921;53.256;8.198;2023-06-22T07:07:30;24.40;94.10
47162;DHT22;32921;53.256;8.198;2023-06-22T07:09:55;24.70;92.40
47162;DHT22;32921;53.256;8.198;2023-06-22T07:12:21;25.20;91.00
47162;DHT22;32921;53.256;8.198;2023-06-22T07:14:46;25.20;90.50
47162;DHT22;32921;53.256;8.198;2023-06-22T07:17:12;25.60;90.30
47162;DHT22;32921;53.256;8.198;2023-06-22T07:19:37;25.80;88.90
47162;DHT22;32921;53.256;8.198;2023-06-22T07:22:04;26.00;88.20
47162;DHT22;32921;53.256;8.198;2023-06-22T07:24:29;26.20;87.60
47162;DHT22;32921;53.256;8.198;2023-06-22T07:26:55;26.40;86.10
47162;DHT22;32921;53.256;8.198;2023-06-22T07:29:22;26.50;85.50
47162;DHT22;32921;53.256;8.198;2023-06-22T07:31:49;26.50;85.10
47162;DHT22;32921;53.256;8.198;2023-06-22T07:34:15;26.80;84.00
47162;DHT22;32921;53.256;8.198;2023-06-22T07:36:41;26.60;86.70
47162;DHT22;32921;53.256;8.198;2023-06-22T07:39:06;27.00;84.00
47162;DHT22;32921;53.256;8.198;2023-06-22T07:41:32;27.20;80.80
47162;DHT22;32921;53.256;8.198;2023-06-22T07:43:57;27.10;78.60
47162;DHT22;32921;53.256;8.198;2023-06-22T07:46:23;27.70;78.10
47162;DHT22;32921;53.256;8.198;2023-06-22T07:48:49;27.40;77.20
47162;DHT22;32921;53.256;8.198;2023-06-22T07:51:14;27.50;76.90
47162;DHT22;32921;53.256;8.198;2023-06-22T07:53:44;27.50;74.50
47162;DHT22;32921;53.256;8.198;2023-06-22T07:56:13;27.60;73.70
47162;DHT22;32921;53.256;8.198;2023-06-22T07:58:39;27.50;75.30
47162;DHT22;32921;53.256;8.198;2023-06-22T08:01:04;26.80;74.80
47162;DHT22;32921;53.256;8.198;2023-06-22T08:03:31;27.60;75.50
47162;DHT22;32921;53.256;8.198;2023-06-22T08:05:57;27.90;73.80
47162;DHT22;32921;53.256;8.198;2023-06-22T08:08:22;27.90;71.70
47162;DHT22;32921;53.256;8.198;2023-06-22T08:10:48;27.70;73.10
47162;DHT22;32921;53.256;8.198;2023-06-22T08:13:13;28.30;72.90
47162;DHT22;32921;53.256;8.198;2023-06-22T08:15:39;28.40;70.90
47162;DHT22;32921;53.256;8.198;2023-06-22T08:18:05;27.40;70.40
47162;DHT22;32921;53.256;8.198;2023-06-22T08:20:30;27.30;74.80
47162;DHT22;32921;53.256;8.198;2023-06-22T08:22:56;26.80;76.80
47162;DHT22;32921;53.256;8.198;2023-06-22T08:25:23;27.50;73.30
47162;DHT22;32921;53.256;8.198;2023-06-22T08:27:49;27.80;74.70
47162;DHT22;32921;53.256;8.198;2023-06-22T08:30:15;28.20;72.50
47162;DHT22;32921;53.256;8.198;2023-06-22T08:32:41;27.80;71.40
47162;DHT22;32921;53.256;8.198;2023-06-22T08:35:07;27.50;73.30
47162;DHT22;32921;53.256;8.198;2023-06-22T08:37:36;27.10;75.80
47162;DHT22;32921;53.256;8.198;2023-06-22T08:40:03;27.10;74.30
47162;DHT22;32921;53.256;8.198;2023-06-22T08:42:33;27.70;73.70
47162;DHT22;32921;53.256;8.198;2023-06-22T08:44:59;27.50;71.90
47162;DHT22;32921;53.256;8.198;2023-06-22T08:47:27;28.10;72.30
47162;DHT22;32921;53.256;8.198;2023-06-22T08:49:52;28.50;71.60
47162;DHT22;32921;53.256;8.198;2023-06-22T08:52:18;28.50;70.80
47162;DHT22;32921;53.256;8.198;2023-06-22T08:54:45;28.90;68.70
47162;DHT22;32921;53.256;8.198;2023-06-22T08:57:11;29.30;68.70
47162;DHT22;32921;53.256;8.198;2023-06-22T08:59:36;29.20;68.50
47162;DHT22;32921;53.256;8.198;2023-06-22T09:02:02;29.80;70.20
47162;DHT22;32921;53.256;8.198;2023-06-22T09:04:27;30.40;65.80
47162;DHT22;32921;53.256;8.198;2023-06-22T09:06:53;30.20;66.30
47162;DHT22;32921;53.256;8.198;2023-06-22T09:09:21;30.30;65.90
47162;DHT22;32921;53.256;8.198;2023-06-22T09:11:47;30.10;64.40
47162;DHT22;32921;53.256;8.198;2023-06-22T09:14:12;30.30;64.40
47162;DHT22;32921;53.256;8.198;2023-06-22T09:16:38;30.50;64.50
47162;DHT22;32921;53.256;8.198;2023-06-22T09:19:04;31.00;63.80
47162;DHT22;32921;53.256;8.198;2023-06-22T09:21:29;30.80;62.60
47162;DHT22;32921;53.256;8.198;2023-06-22T09:23:55;30.90;61.40
47162;DHT22;32921;53.256;8.198;2023-06-22T09:26:21;30.00;64.60
47162;DHT22;32921;53.256;8.198;2023-06-22T09:28:46;29.70;63.90
47162;DHT22;32921;53.256;8.198;2023-06-22T09:31:12;30.80;63.60
47162;DHT22;32921;53.256;8.198;2023-06-22T09:33:40;31.10;63.00
47162;DHT22;32921;53.256;8.198;2023-06-22T09:36:06;31.40;61.30
47162;DHT22;32921;53.256;8.198;2023-06-22T09:38:38;30.50;61.80
47162;DHT22;32921;53.256;8.198;2023-06-22T09:41:04;30.10;63.10
47162;DHT22;32921;53.256;8.198;2023-06-22T09:43:31;30.90;63.00
47162;DHT22;32921;53.256;8.198;2023-06-22T09:45:57;30.90;61.10
47162;DHT22;32921;53.256;8.198;2023-06-22T09:48:23;30.90;60.60
47162;DHT22;32921;53.256;8.198;2023-06-22T09:50:49;30.30;61.50
47162;DHT22;32921;53.256;8.198;2023-06-22T09:53:14;30.20;63.40
47162;DHT22;32921;53.256;8.198;2023-06-22T09:55:40;30.00;63.40
47162;DHT22;32921;53.256;8.198;2023-06-22T09:58:05;30.50;61.90
47162;DHT22;32921;53.256;8.198;2023-06-22T10:00:31;30.90;60.10
47162;DHT22;32921;53.256;8.198;2023-06-22T10:02:57;31.10;60.10
47162;DHT22;32921;53.256;8.198;2023-06-22T10:05:22;30.80;60.60
47162;DHT22;32921;53.256;8.198;2023-06-22T10:07:48;31.60;58.70
47162;DHT22;32921;53.256;8.198;2023-06-22T10:10:14;31.30;57.20
47162;DHT22;32921;53.256;8.198;2023-06-22T10:12:46;30.60;61.00
47162;DHT22;32921;53.256;8.198;2023-06-22T10:15:12;30.30;59.60
47162;DHT22;32921;53.256;8.198;2023-06-22T10:17:38;29.50;63.60
47162;DHT22;32921;53.256;8.198;2023-06-22T10:20:05;30.20;61.70
47162;DHT22;32921;53.256;8.198;2023-06-22T10:22:42;30.70;61.60
47162;DHT22;32921;53.256;8.198;2023-06-22T10:25:09;29.10;65.60
47162;DHT22;32921;53.256;8.198;2023-06-22T10:27:35;30.30;62.70
47162;DHT22;32921;53.256;8.198;2023-06-22T10:30:01;30.60;61.60
47162;DHT22;32921;53.256;8.198;2023-06-22T10:32:26;31.40;59.60
47162;DHT22;32921;53.256;8.198;2023-06-22T10:34:54;30.90;59.90
47162;DHT22;32921;53.256;8.198;2023-06-22T10:37:19;29.90;63.50
47162;DHT22;32921;53.256;8.198;2023-06-22T10:39:45;30.80;61.90
47162;DHT22;32921;53.256;8.198;2023-06-22T10:42:11;31.70;59.00
47162;DHT22;32921;53.256;8.198;2023-06-22T10:44:37;31.80;57.60
47162;DHT22;32921;53.256;8.198;2023-06-22T10:47:04;31.80;58.80
47162;DHT22;32921;53.256;8.198;2023-06-22T10:49:30;31.60;58.40
47162;DHT22;32921;53.256;8.198;2023-06-22T10:51:55;31.20;58.40
47162;DHT22;32921;53.256;8.198;2023-06-22T10:54:21;31.60;58.50
47162;DHT22;32921;53.256;8.198;2023-06-22T10:56:46;32.00;55.60
47162;DHT22;32921;53.256;8.198;2023-06-22T10:59:12;31.90;56.10
47162;DHT22;32921;53.256;8.198;2023-06-22T11:01:37;31.50;58.30
47162;DHT22;32921;53.256;8.198;2023-06-22T11:04:03;32.10;56.40
47162;DHT22;32921;53.256;8.198;2023-06-22T11:06:29;33.10;55.10
47162;DHT22;32921;53.256;8.198;2023-06-22T11:08:55;33.70;53.50
47162;DHT22;32921;53.256;8.198;2023-06-22T11:11:20;32.30;55.00
47162;DHT22;32921;53.256;8.198;2023-06-22T11:13:46;31.00;59.70
47162;DHT22;32921;53.256;8.198;2023-06-22T11:16:12;31.00;58.90
47162;DHT22;32921;53.256;8.198;2023-06-22T11:18:37;31.40;58.70
47162;DHT22;32921;53.256;8.198;2023-06-22T11:21:03;32.10;57.10
47162;DHT22;32921;53.256;8.198;2023-06-22T11:23:28;32.10;56.20
47162;DHT22;32921;53.256;8.198;2023-06-22T11:25:54;31.10;56.50
47162;DHT22;32921;53.256;8.198;2023-06-22T11:28:20;30.60;59.80
47162;DHT22;32921;53.256;8.198;2023-06-22T11:30:46;30.60;59.20
47162;DHT22;32921;53.256;8.198;2023-06-22T11:33:11;30.10;60.40
47162;DHT22;32921;53.256;8.198;2023-06-22T11:35:37;30.60;60.60
47162;DHT22;32921;53.256;8.198;2023-06-22T11:38:03;31.30;60.50
47162;DHT22;32921;53.256;8.198;2023-06-22T11:40:30;31.90;57.00
47162;DHT22;32921;53.256;8.198;2023-06-22T11:42:55;32.30;53.80
47162;DHT22;32921;53.256;8.198;2023-06-22T11:45:21;32.20;55.60
47162;DHT22;32921;53.256;8.198;2023-06-22T11:47:47;33.50;54.30
47162;DHT22;32921;53.256;8.198;2023-06-22T11:50:13;33.80;52.40
47162;DHT22;32921;53.256;8.198;2023-06-22T11:52:38;33.30;52.30
47162;DHT22;32921;53.256;8.198;2023-06-22T11:55:05;33.30;52.40
47162;DHT22;32921;53.256;8.198;2023-06-22T11:57:36;33.20;50.70
47162;DHT22;32921;53.256;8.198;2023-06-22T12:00:05;33.10;51.30
47162;DHT22;32921;53.256;8.198;2023-06-22T12:02:41;32.90;52.50
47162;DHT22;32921;53.256;8.198;2023-06-22T12:05:07;32.30;54.70
47162;DHT22;32921;53.256;8.198;2023-06-22T12:07:33;31.70;54.60
47162;DHT22;32921;53.256;8.198;2023-06-22T12:09:59;31.80;53.90
47162;DHT22;32921;53.256;8.198;2023-06-22T12:12:24;31.40;54.50
47162;DHT22;32921;53.256;8.198;2023-06-22T12:14:50;31.60;54.60
47162;DHT22;32921;53.256;8.198;2023-06-22T12:17:15;30.90;56.40
47162;DHT22;32921;53.256;8.198;2023-06-22T12:19:41;30.40;58.90
47162;DHT22;32921;53.256;8.198;2023-06-22T12:22:07;30.50;58.10
47162;DHT22;32921;53.256;8.198;2023-06-22T12:24:32;30.10;59.40
47162;DHT22;32921;53.256;8.198;2023-06-22T12:26:58;30.40;59.50
47162;DHT22;32921;53.256;8.198;2023-06-22T12:29:23;30.50;59.40
47162;DHT22;32921;53.256;8.198;2023-06-22T12:31:49;30.70;57.70
47162;DHT22;32921;53.256;8.198;2023-06-22T12:34:14;30.40;58.50
47162;DHT22;32921;53.256;8.198;2023-06-22T12:36:40;30.30;59.60
47162;DHT22;32921;53.256;8.198;2023-06-22T12:39:06;29.60;60.90
47162;DHT22;32921;53.256;8.198;2023-06-22T12:41:31;29.70;60.70
47162;DHT22;32921;53.256;8.198;2023-06-22T12:43:57;29.60;61.60
47162;DHT22;32921;53.256;8.198;2023-06-22T12:46:23;30.10;60.90
47162;DHT22;32921;53.256;8.198;2023-06-22T12:48:48;30.50;62.20
47162;DHT22;32921;53.256;8.198;2023-06-22T12:51:20;30.10;65.20
47162;DHT22;32921;53.256;8.198;2023-06-22T12:53:46;29.70;68.20
47162;DHT22;32921;53.256;8.198;2023-06-22T12:56:12;28.50;73.60
47162;DHT22;32921;53.256;8.198;2023-06-22T12:58:37;28.10;75.10
47162;DHT22;32921;53.256;8.198;2023-06-22T13:01:03;27.80;77.70
47162;DHT22;32921;53.256;8.198;2023-06-22T13:03:28;27.60;78.20
47162;DHT22;32921;53.256;8.198;2023-06-22T13:05:54;27.60;80.10
47162;DHT22;32921;53.256;8.198;2023-06-22T13:08:20;27.50;79.00
47162;DHT22;32921;53.256;8.198;2023-06-22T13:10:45;27.10;82.80
47162;DHT22;32921;53.256;8.198;2023-06-22T13:13:11;27.30;82.80
47162;DHT22;32921;53.256;8.198;2023-06-22T13:15:36;27.30;80.90
47162;DHT22;32921;53.256;8.198;2023-06-22T13:18:02;26.80;83.10
47162;DHT22;32921;53.256;8.198;2023-06-22T13:20:29;26.90;83.50
47162;DHT22;32921;53.256;8.198;2023-06-22T13:22:54;26.80;84.40
47162;DHT22;32921;53.256;8.198;2023-06-22T13:25:21;26.70;85.00
47162;DHT22;32921;53.256;8.198;2023-06-22T13:27:49;26.70;85.80
47162;DHT22;32921;53.256;8.198;2023-06-22T13:30:14;26.50;88.60
47162;DHT22;32921;53.256;8.198;2023-06-22T13:32:40;27.10;86.50
47162;DHT22;32921;53.256;8.198;2023-06-22T13:35:10;27.40;84.70
47162;DHT22;32921;53.256;8.198;2023-06-22T13:37:36;27.50;84.80
47162;DHT22;32921;53.256;8.198;2023-06-22T13:40:01;27.80;83.40
47162;DHT22;32921;53.256;8.198;2023-06-22T13:42:30;27.30;84.90
47162;DHT22;32921;53.256;8.198;2023-06-22T13:44:56;27.00;85.80
47162;DHT22;32921;53.256;8.198;2023-06-22T13:47:21;26.80;86.90
47162;DHT22;32921;53.256;8.198;2023-06-22T13:49:47;26.40;89.70
47162;DHT22;32921;53.256;8.198;2023-06-22T13:52:12;26.20;90.80
47162;DHT22;32921;53.256;8.198;2023-06-22T13:54:38;25.80;91.30
47162;DHT22;32921;53.256;8.198;2023-06-22T13:57:04;25.90;91.30
47162;DHT22;32921;53.256;8.198;2023-06-22T13:59:30;25.80;91.30
47162;DHT22;32921;53.256;8.198;2023-06-22T14:01:55;26.00;91.30
47162;DHT22;32921;53.256;8.198;2023-06-22T14:04:24;26.10;91.50
47162;DHT22;32921;53.256;8.198;2023-06-22T14:06:50;26.00;91.70
47162;DHT22;32921;53.256;8.198;2023-06-22T14:09:15;25.80;91.50
47162;DHT22;32921;53.256;8.198;2023-06-22T14:11:41;25.60;92.50
47162;DHT22;32921;53.256;8.198;2023-06-22T14:14:06;25.50;92.70
47162;DHT22;32921;53.256;8.198;2023-06-22T14:16:32;25.30;92.90
47162;DHT22;32921;53.256;8.198;2023-06-22T14:18:57;25.20;94.00
47162;DHT22;32921;53.256;8.198;2023-06-22T14:21:23;25.20;93.80
47162;DHT22;32921;53.256;8.198;2023-06-22T14:23:48;25.20;94.10
47162;DHT22;32921;53.256;8.198;2023-06-22T14:26:18;25.30;93.90
47162;DHT22;32921;53.256;8.198;2023-06-22T14:28:45;25.20;93.40
47162;DHT22;32921;53.256;8.198;2023-06-22T14:31:16;25.00;94.50
47162;DHT22;32921;53.256;8.198;2023-06-22T14:33:47;25.00;94.50
47162;DHT22;32921;53.256;8.198;2023-06-22T14:36:13;25.00;94.50
47162;DHT22;32921;53.256;8.198;2023-06-22T14:38:39;25.10;94.20
47162;DHT22;32921;53.256;8.198;2023-06-22T14:41:05;25.00;94.00
47162;DHT22;32921;53.256;8.198;2023-06-22T14:43:30;24.90;93.80
47162;DHT22;32921;53.256;8.198;2023-06-22T14:45:56;24.80;93.80
47162;DHT22;32921;53.256;8.198;2023-06-22T14:48:21;24.60;93.40
47162;DHT22;32921;53.256;8.198;2023-06-22T14:50:47;24.50;93.60
47162;DHT22;32921;53.256;8.198;2023-06-22T14:53:12;24.40;93.60
47162;DHT22;32921;53.256;8.198;2023-06-22T14:55:39;24.30;93.90
47162;DHT22;32921;53.256;8.198;2023-06-22T14:58:05;24.10;94.50
47162;DHT22;32921;53.256;8.198;2023-06-22T15:00:31;23.90;95.20
47162;DHT22;32921;53.256;8.198;2023-06-22T15:02:56;23.70;96.40
47162;DHT22;32921;53.256;8.198;2023-06-22T15:05:23;23.50;98.70
47162;DHT22;32921;53.256;8.198;2023-06-22T15:07:49;23.30;99.90
47162;DHT22;32921;53.256;8.198;2023-06-22T15:10:15;23.10;99.90
47162;DHT22;32921;53.256;8.198;2023-06-22T15:12:41;23.00;99.90
47162;DHT22;32921;53.256;8.198;2023-06-22T15:15:07;23.00;99.90
47162;DHT22;32921;53.256;8.198;2023-06-22T15:17:32;23.00;99.90
47162;DHT22;32921;53.256;8.198;2023-06-22T15:19:58;22.90;99.90
47162;DHT22;32921;53.256;8.198;2023-06-22T15:22:24;23.00;99.90
47162;DHT22;32921;53.256;8.198;2023-06-22T15:24:49;23.10;99.90
47162;DHT22;32921;53.256;8.198;2023-06-22T15:27:18;23.00;99.90
47162;DHT22;32921;53.256;8.198;2023-06-22T15:29:44;23.10;99.90
47162;DHT22;32921;53.256;8.198;2023-06-22T15:32:09;23.00;99.90
47162;DHT22;32921;53.256;8.198;2023-06-22T15:34:35;23.00;99.90
47162;DHT22;32921;53.256;8.198;2023-06-22T15:37:01;23.00;99.90
47162;DHT22;32921;53.256;8.198;2023-06-22T15:39:26;23.00;99.90
47162;DHT22;32921;53.256;8.198;2023-06-22T15:41:55;22.90;99.90
47162;DHT22;32921;53.256;8.198;2023-06-22T15:44:21;22.90;99.90
47162;DHT22;32921;53.256;8.198;2023-06-22T15:46:46;22.90;99.90
47162;DHT22;32921;53.256;8.198;2023-06-22T15:49:12;22.90;99.90
47162;DHT22;32921;53.256;8.198;2023-06-22T15:51:38;22.70;99.90
47162;DHT22;32921;53.256;8.198;2023-06-22T15:54:03;22.60;99.90
47162;DHT22;32921;53.256;8.198;2023-06-22T15:56:29;22.50;99.90
47162;DHT22;32921;53.256;8.198;2023-06-22T15:58:55;22.40;99.90
47162;DHT22;32921;53.256;8.198;2023-06-22T16:01:22;22.30;99.90
47162;DHT22;32921;53.256;8.198;2023-06-22T16:03:50;22.20;99.90
47162;DHT22;32921;53.256;8.198;2023-06-22T16:06:15;22.20;99.90
47162;DHT22;32921;53.256;8.198;2023-06-22T16:08:41;22.10;99.90
47162;DHT22;32921;53.256;8.198;2023-06-22T16:11:07;22.10;99.90
47162;DHT22;32921;53.256;8.198;2023-06-22T16:13:33;22.10;99.90
47162;DHT22;32921;53.256;8.198;2023-06-22T16:15:58;22.00;99.90
47162;DHT22;32921;53.256;8.198;2023-06-22T16:18:24;21.90;99.90
47162;DHT22;32921;53.256;8.198;2023-06-22T16:20:49;21.80;99.90
47162;DHT22;32921;53.256;8.198;2023-06-22T16:23:15;21.60;99.90
47162;DHT22;32921;53.256;8.198;2023-06-22T16:25:42;21.40;99.90
47162;DHT22;32921;53.256;8.198;2023-06-22T16:28:08;21.30;99.90
47162;DHT22;32921;53.256;8.198;2023-06-22T16:30:34;21.20;99.90
47162;DHT22;32921;53.256;8.198;2023-06-22T16:32:59;21.20;99.90
47162;DHT22;32921;53.256;8.198;2023-06-22T16:35:27;21.20;99.90
47162;DHT22;32921;53.256;8.198;2023-06-22T16:37:54;21.20;99.90
47162;DHT22;32921;53.256;8.198;2023-06-22T16:40:20;21.30;99.90
47162;DHT22;32921;53.256;8.198;2023-06-22T16:42:47;21.20;99.90
47162;DHT22;32921;53.256;8.198;2023-06-22T16:45:14;21.10;99.90
47162;DHT22;32921;53.256;8.198;2023-06-22T16:47:41;21.00;99.90
47162;DHT22;32921;53.256;8.198;2023-06-22T16:50:07;20.90;99.90
47162;DHT22;32921;53.256;8.198;2023-06-22T16:52:32;21.00;99.90
47162;DHT22;32921;53.256;8.198;2023-06-22T16:55:00;21.00;99.90
47162;DHT22;32921;53.256;8.198;2023-06-22T16:57:25;21.00;99.90
47162;DHT22;32921;53.256;8.198;2023-06-22T16:59:54;21.00;99.90
47162;DHT22;32921;53.256;8.198;2023-06-22T17:02:22;20.90;99.90
47162;DHT22;32921;53.256;8.198;2023-06-22T17:04:54;21.00;99.90
47162;DHT22;32921;53.256;8.198;2023-06-22T17:07:22;21.00;99.90
47162;DHT22;32921;53.256;8.198;2023-06-22T17:09:49;21.00;99.90
47162;DHT22;32921;53.256;8.198;2023-06-22T17:12:15;21.00;99.90
47162;DHT22;32921;53.256;8.198;2023-06-22T17:14:41;21.00;99.90
47162;DHT22;32921;53.256;8.198;2023-06-22T17:17:10;20.90;99.90
47162;DHT22;32921;53.256;8.198;2023-06-22T17:19:36;20.90;99.90
47162;DHT22;32921;53.256;8.198;2023-06-22T17:22:02;21.00;99.90
47162;DHT22;32921;53.256;8.198;2023-06-22T17:24:27;21.00;99.90
47162;DHT22;32921;53.256;8.198;2023-06-22T17:26:55;21.10;99.90
47162;DHT22;32921;53.256;8.198;2023-06-22T17:29:21;21.20;99.90
47162;DHT22;32921;53.256;8.198;2023-06-22T17:31:47;21.20;99.90
47162;DHT22;32921;53.256;8.198;2023-06-22T17:34:14;21.30;99.90
47162;DHT22;32921;53.256;8.198;2023-06-22T17:36:51;21.30;99.90
47162;DHT22;32921;53.256;8.198;2023-06-22T17:39:21;21.30;99.90
47162;DHT22;32921;53.256;8.198;2023-06-22T17:41:48;21.30;99.90
47162;DHT22;32921;53.256;8.198;2023-06-22T17:44:23;21.40;99.90
47162;DHT22;32921;53.256;8.198;2023-06-22T17:46:53;21.30;99.90
47162;DHT22;32921;53.256;8.198;2023-06-22T17:49:19;21.20;99.90
47162;DHT22;32921;53.256;8.198;2023-06-22T17:51:45;21.20;99.90
47162;DHT22;32921;53.256;8.198;2023-06-22T17:54:14;21.20;99.90
47162;DHT22;32921;53.256;8.198;2023-06-22T17:56:40;21.10;99.90
47162;DHT22;32921;53.256;8.198;2023-06-22T17:59:05;21.10;99.90
47162;DHT22;32921;53.256;8.198;2023-06-22T18:01:36;21.10;99.90
47162;DHT22;32921;53.256;8.198;2023-06-22T18:04:15;21.00;99.90
47162;DHT22;32921;53.256;8.198;2023-06-22T18:06:44;21.00;99.90
47162;DHT22;32921;53.256;8.198;2023-06-22T18:09:12;21.00;99.90
47162;DHT22;32921;53.256;8.198;2023-06-22T18:14:10;21.00;99.90
47162;DHT22;32921;53.256;8.198;2023-06-22T18:16:38;20.90;99.90
47162;DHT22;32921;53.256;8.198;2023-06-22T18:19:06;20.90;99.90
47162;DHT22;32921;53.256;8.198;2023-06-22T18:21:33;20.90;99.90
47162;DHT22;32921;53.256;8.198;2023-06-22T18:23:59;20.80;99.90
47162;DHT22;32921;53.256;8.198;2023-06-22T18:26:26;20.80;99.90
47162;DHT22;32921;53.256;8.198;2023-06-22T18:28:54;20.80;99.90
47162;DHT22;32921;53.256;8.198;2023-06-22T18:31:20;20.70;99.90
47162;DHT22;32921;53.256;8.198;2023-06-22T18:33:51;20.70;99.90
47162;DHT22;32921;53.256;8.198;2023-06-22T18:36:25;20.70;99.90
47162;DHT22;32921;53.256;8.198;2023-06-22T18:38:52;20.70;99.90
47162;DHT22;32921;53.256;8.198;2023-06-22T18:41:33;20.70;99.90
47162;DHT22;32921;53.256;8.198;2023-06-22T18:43:59;20.70;99.90
47162;DHT22;32921;53.256;8.198;2023-06-22T18:46:38;20.70;99.90
47162;DHT22;32921;53.256;8.198;2023-06-22T18:51:56;20.60;99.90
47162;DHT22;32921;53.256;8.198;2023-06-22T18:54:36;20.50;99.90
47162;DHT22;32921;53.256;8.198;2023-06-22T18:57:13;20.20;99.90
47162;DHT22;32921;53.256;8.198;2023-06-22T19:02:44;19.40;99.90
47162;DHT22;32921;53.256;8.198;2023-06-22T19:10:23;19.00;99.90
47162;DHT22;32921;53.256;8.198;2023-06-22T19:12:53;19.00;99.90
47162;DHT22;32921;53.256;8.198;2023-06-22T19:15:20;18.90;99.90
47162;DHT22;32921;53.256;8.198;2023-06-22T19:17:46;18.80;99.90
47162;DHT22;32921;53.256;8.198;2023-06-22T19:20:12;18.80;99.90
47162;DHT22;32921;53.256;8.198;2023-06-22T19:22:55;18.70;99.90
47162;DHT22;32921;53.256;8.198;2023-06-22T19:25:28;18.80;99.90
47162;DHT22;32921;53.256;8.198;2023-06-22T19:27:56;18.70;99.90
47162;DHT22;32921;53.256;8.198;2023-06-22T19:30:23;18.70;99.90
47162;DHT22;32921;53.256;8.198;2023-06-22T19:32:49;18.60;99.90
47162;DHT22;32921;53.256;8.198;2023-06-22T19:35:18;18.60;99.90
47162;DHT22;32921;53.256;8.198;2023-06-22T19:37:48;18.60;99.90
47162;DHT22;32921;53.256;8.198;2023-06-22T19:40:15;18.60;99.90
47162;DHT22;32921;53.256;8.198;2023-06-22T19:42:43;18.60;99.90
47162;DHT22;32921;53.256;8.198;2023-06-22T19:45:13;18.70;99.90
47162;DHT22;32921;53.256;8.198;2023-06-22T19:47:39;18.60;99.90
47162;DHT22;32921;53.256;8.198;2023-06-22T19:50:05;18.60;99.90
47162;DHT22;32921;53.256;8.198;2023-06-22T19:52:40;18.60;99.90
47162;DHT22;32921;53.256;8.198;2023-06-22T19:55:08;18.70;99.90
47162;DHT22;32921;53.256;8.198;2023-06-22T19:57:35;18.70;99.90
47162;DHT22;32921;53.256;8.198;2023-06-22T20:00:02;18.70;99.90
47162;DHT22;32921;53.256;8.198;2023-06-22T20:02:33;18.70;99.90
47162;DHT22;32921;53.256;8.198;2023-06-22T20:05:04;18.70;99.90
47162;DHT22;32921;53.256;8.198;2023-06-22T20:07:40;18.70;99.90
47162;DHT22;32921;53.256;8.198;2023-06-22T20:10:14;18.70;99.90
47162;DHT22;32921;53.256;8.198;2023-06-22T20:12:40;18.70;99.90
47162;DHT22;32921;53.256;8.198;2023-06-22T20:15:21;18.70;99.90
47162;DHT22;32921;53.256;8.198;2023-06-22T20:17:58;18.70;99.90
47162;DHT22;32921;53.256;8.198;2023-06-22T20:20:26;18.70;99.90
47162;DHT22;32921;53.256;8.198;2023-06-22T20:22:55;18.80;99.90
47162;DHT22;32921;53.256;8.198;2023-06-22T20:25:22;18.70;99.90
47162;DHT22;32921;53.256;8.198;2023-06-22T20:27:48;18.70;99.90
47162;DHT22;32921;53.256;8.198;2023-06-22T20:30:15;18.70;99.90
47162;DHT22;32921;53.256;8.198;2023-06-22T20:32:54;18.70;99.90
47162;DHT22;32921;53.256;8.198;2023-06-22T20:35:24;18.70;99.90
47162;DHT22;32921;53.256;8.198;2023-06-22T20:37:51;18.60;99.90
47162;DHT22;32921;53.256;8.198;2023-06-22T20:40:23;18.60;99.90
47162;DHT22;32921;53.256;8.198;2023-06-22T20:43:00;18.60;99.90
47162;DHT22;32921;53.256;8.198;2023-06-22T20:45:26;18.50;99.90
47162;DHT22;32921;53.256;8.198;2023-06-22T20:47:53;18.50;99.90
47162;DHT22;32921;53.256;8.198;2023-06-22T20:50:24;18.50;99.90
47162;DHT22;32921;53.256;8.198;2023-06-22T20:52:58;18.50;99.90
47162;DHT22;32921;53.256;8.198;2023-06-22T20:55:24;18.40;99.90
47162;DHT22;32921;53.256;8.198;2023-06-22T20:57:50;18.40;99.90
47162;DHT22;32921;53.256;8.198;2023-06-22T21:00:16;18.40;99.90
47162;DHT22;32921;53.256;8.198;2023-06-22T21:02:42;18.40;99.90
47162;DHT22;32921;53.256;8.198;2023-06-22T21:05:09;18.40;99.90
47162;DHT22;32921;53.256;8.198;2023-06-22T21:07:36;18.40;99.90
47162;DHT22;32921;53.256;8.198;2023-06-22T21:10:02;18.30;99.90
47162;DHT22;32921;53.256;8.198;2023-06-22T21:12:27;18.20;99.90
47162;DHT22;32921;53.256;8.198;2023-06-22T21:14:54;18.20;99.90
47162;DHT22;32921;53.256;8.198;2023-06-22T21:17:19;18.20;99.90
47162;DHT22;32921;53.256;8.198;2023-06-22T21:19:45;18.10;99.90
47162;DHT22;32921;53.256;8.198;2023-06-22T21:22:11;18.10;99.90
47162;DHT22;32921;53.256;8.198;2023-06-22T21:24:36;18.10;99.90
47162;DHT22;32921;53.256;8.198;2023-06-22T21:27:02;17.90;99.90
47162;DHT22;32921;53.256;8.198;2023-06-22T21:29:28;17.90;99.90
47162;DHT22;32921;53.256;8.198;2023-06-22T21:31:53;17.90;99.90
47162;DHT22;32921;53.256;8.198;2023-06-22T21:34:21;17.90;99.90
47162;DHT22;32921;53.256;8.198;2023-06-22T21:36:46;17.80;99.90